createdAt,value
2022-12-18T00:01:21.812Z,4.72
2022-12-18T00:03:49.758Z,5.47
2022-12-18T00:06:20.479Z,3.47
2022-12-18T00:08:48.595Z,3.92
2022-12-18T00:11:20.847Z,4.03
2022-12-18T00:13:48.389Z,4.07
2022-12-18T00:16:21.032Z,5.15
2022-12-18T00:18:50.091Z,4.05
2022-12-18T00:21:17.268Z,4.35
2022-12-18T00:23:47.301Z,4.35
2022-12-18T00:26:20.361Z,4.18
2022-12-18T00:28:47.787Z,3.25
2022-12-18T00:31:20.721Z,4.60
2022-12-18T00:33:48.110Z,4.10
2022-12-18T00:36:19.978Z,3.28
2022-12-18T00:38:48.193Z,4.18
2022-12-18T00:41:39.121Z,4.13
2022-12-18T00:44:08.643Z,5.82
2022-12-18T00:46:35.528Z,4.05
2022-12-18T00:49:02.926Z,5.43
2022-12-18T00:51:29.858Z,3.45
2022-12-18T00:53:57.201Z,3.25
2022-12-18T00:56:24.614Z,5.15
2022-12-18T00:58:51.873Z,5.15
2022-12-18T01:01:19.504Z,4.82
2022-12-18T01:03:47.714Z,4.03
2022-12-18T01:06:17.511Z,4.22
2022-12-18T01:08:45.419Z,3.90
2022-12-18T01:11:19.577Z,3.72
2022-12-18T01:13:46.460Z,3.97
2022-12-18T01:16:14.935Z,3.95
2022-12-18T01:18:42.034Z,4.55
2022-12-18T01:21:11.601Z,5.07
2022-12-18T01:23:39.193Z,4.38
2022-12-18T01:26:12.010Z,6.30
2022-12-18T01:28:39.351Z,5.50
2022-12-18T01:31:29.960Z,7.75
2022-12-18T01:33:57.382Z,6.47
2022-12-18T01:36:24.175Z,6.38
2022-12-18T01:38:52.062Z,6.32
2022-12-18T01:41:22.602Z,6.82
2022-12-18T01:43:58.399Z,6.45
2022-12-18T01:46:26.280Z,6.80
2022-12-18T01:49:02.364Z,5.70
2022-12-18T01:51:31.845Z,10.40
2022-12-18T01:54:00.166Z,8.55
2022-12-18T01:56:27.101Z,9.15
2022-12-18T01:59:01.088Z,12.40
2022-12-18T02:01:30.376Z,8.50
2022-12-18T02:04:25.938Z,7.45
2022-12-18T02:07:10.829Z,8.93
2022-12-18T02:10:00.036Z,7.20
2022-12-18T02:12:53.082Z,9.75
2022-12-18T02:15:45.184Z,8.48
2022-12-18T02:18:19.517Z,8.15
2022-12-18T02:20:53.895Z,6.60
2022-12-18T02:23:40.379Z,6.30
2022-12-18T02:26:13.518Z,6.32
2022-12-18T02:29:04.898Z,6.45
2022-12-18T02:31:40.293Z,6.07
2022-12-18T02:34:09.610Z,6.65
2022-12-18T02:36:42.897Z,5.15
2022-12-18T02:39:13.674Z,5.50
2022-12-18T02:41:49.025Z,6.05
2022-12-18T02:44:16.220Z,7.60
2022-12-18T02:46:50.215Z,4.18
2022-12-18T02:49:35.383Z,4.82
2022-12-18T02:52:17.056Z,6.63
2022-12-18T02:55:10.039Z,6.25
2022-12-18T02:57:44.755Z,3.58
2022-12-18T03:00:17.244Z,4.65
2022-12-18T03:02:47.471Z,4.38
2022-12-18T03:05:36.837Z,5.53
2022-12-18T03:08:11.556Z,4.97
2022-12-18T03:10:50.531Z,4.35
2022-12-18T03:15:52.350Z,6.40
2022-12-18T03:18:24.755Z,5.45
2022-12-18T03:20:56.866Z,4.32
2022-12-18T03:23:28.929Z,3.65
2022-12-18T03:28:33.525Z,3.13
2022-12-18T03:31:06.748Z,4.07
2022-12-18T03:33:41.347Z,2.97
2022-12-18T03:36:08.803Z,4.65
2022-12-18T03:38:35.923Z,3.97
2022-12-18T03:41:26.257Z,6.80
2022-12-18T03:44:45.807Z,6.05
2022-12-18T03:50:03.697Z,3.55
2022-12-18T03:52:39.563Z,4.53
2022-12-18T03:55:09.740Z,4.13
2022-12-18T03:57:39.075Z,4.80
2022-12-18T04:00:18.761Z,4.28
2022-12-18T04:03:01.886Z,4.25
2022-12-18T04:05:41.336Z,4.68
2022-12-18T04:08:08.668Z,4.80
2022-12-18T04:10:39.041Z,4.20
2022-12-18T04:13:05.997Z,5.13
2022-12-18T04:15:36.355Z,4.38
2022-12-18T04:18:04.909Z,3.63
2022-12-18T04:20:39.280Z,3.70
2022-12-18T04:23:06.220Z,5.43
2022-12-18T04:25:33.660Z,4.20
2022-12-18T04:28:07.891Z,5.50
2022-12-18T04:30:36.272Z,4.68
2022-12-18T04:33:03.137Z,5.40
2022-12-18T04:35:31.522Z,4.35
2022-12-18T04:37:58.359Z,5.43
2022-12-18T04:40:25.258Z,4.57
2022-12-18T04:42:52.791Z,4.80
2022-12-18T04:45:19.715Z,5.38
2022-12-18T04:47:46.564Z,6.75
2022-12-18T04:50:13.436Z,7.10
2022-12-18T04:52:40.288Z,10.02
2022-12-18T04:55:07.397Z,10.02
2022-12-18T04:57:34.290Z,10.23
2022-12-18T05:00:01.123Z,4.40
2022-12-18T05:02:28.200Z,6.53
2022-12-18T05:04:55.208Z,22.40
2022-12-18T05:07:22.051Z,7.80
2022-12-18T05:09:48.866Z,14.40
2022-12-18T05:12:15.723Z,7.43
2022-12-18T05:14:42.742Z,9.57
2022-12-18T05:17:09.607Z,14.50
2022-12-18T05:19:36.527Z,7.55
2022-12-18T05:22:03.378Z,7.68
2022-12-18T05:24:30.408Z,6.03
2022-12-18T05:26:57.266Z,5.35
2022-12-18T05:29:24.305Z,5.47
2022-12-18T05:31:51.219Z,5.05
2022-12-18T05:34:18.218Z,5.57
2022-12-18T05:36:45.233Z,4.95
2022-12-18T05:39:12.089Z,5.38
2022-12-18T05:41:39.034Z,6.22
2022-12-18T05:44:06.191Z,6.57
2022-12-18T05:46:33.378Z,4.45
2022-12-18T05:49:02.264Z,17.05
2022-12-18T05:51:29.186Z,4.18
2022-12-18T05:53:56.166Z,7.95
2022-12-18T05:56:23.953Z,5.93
2022-12-18T05:58:55.234Z,5.43
2022-12-18T06:01:26.429Z,6.15
2022-12-18T06:03:53.893Z,5.03
2022-12-18T06:06:24.084Z,5.00
2022-12-18T06:08:52.013Z,4.88
2022-12-18T06:11:22.603Z,5.00
2022-12-18T06:13:58.886Z,4.85
2022-12-18T06:16:27.316Z,4.70
2022-12-18T06:18:54.869Z,7.13
2022-12-18T06:21:21.740Z,3.97
2022-12-18T06:23:48.679Z,4.18
2022-12-18T06:26:16.055Z,5.20
2022-12-18T06:28:42.936Z,4.13
2022-12-18T06:31:10.867Z,9.00
2022-12-18T06:33:38.967Z,4.32
2022-12-18T06:36:10.372Z,5.57
2022-12-18T06:38:40.201Z,5.47
2022-12-18T06:41:12.593Z,4.68
2022-12-18T06:43:40.048Z,8.07
2022-12-18T06:46:07.471Z,5.28
2022-12-18T06:48:34.765Z,5.47
2022-12-18T06:51:01.604Z,5.43
2022-12-18T06:53:28.987Z,3.95
2022-12-18T06:56:10.148Z,5.82
2022-12-18T06:58:39.407Z,4.80
2022-12-18T07:01:09.088Z,6.15
2022-12-18T07:03:36.223Z,4.45
2022-12-18T07:06:03.428Z,7.35
2022-12-18T07:08:31.947Z,8.13
2022-12-18T07:10:59.375Z,4.35
2022-12-18T07:13:26.452Z,4.70
2022-12-18T07:15:53.405Z,5.25
2022-12-18T07:18:20.345Z,4.10
2022-12-18T07:20:47.272Z,7.30
2022-12-18T07:23:14.948Z,4.85
2022-12-18T07:25:41.880Z,3.42
2022-12-18T07:28:11.690Z,5.05
2022-12-18T07:30:42.541Z,5.88
2022-12-18T07:33:09.478Z,5.68
2022-12-18T07:35:37.412Z,3.75
2022-12-18T07:38:04.582Z,3.95
2022-12-18T07:40:31.492Z,4.15
2022-12-18T07:42:58.332Z,4.07
2022-12-18T07:45:25.288Z,5.15
2022-12-18T07:47:52.312Z,4.75
2022-12-18T07:50:19.249Z,3.38
2022-12-18T07:52:46.125Z,4.47
2022-12-18T07:55:16.511Z,5.32
2022-12-18T07:57:52.650Z,7.22
2022-12-18T08:00:22.527Z,4.05
2022-12-18T08:02:49.503Z,4.43
2022-12-18T08:05:16.632Z,6.10
2022-12-18T08:07:43.579Z,4.30
2022-12-18T08:10:10.627Z,6.22
2022-12-18T08:12:37.460Z,5.00
2022-12-18T08:15:04.728Z,6.22
2022-12-18T08:17:31.980Z,5.95
2022-12-18T08:19:58.822Z,6.63
2022-12-18T08:22:25.835Z,7.63
2022-12-18T08:24:52.652Z,7.97
2022-12-18T08:27:34.922Z,7.68
2022-12-18T08:30:02.566Z,8.63
2022-12-18T08:32:29.528Z,7.10
2022-12-18T08:34:56.509Z,10.98
2022-12-18T08:37:23.387Z,6.15
2022-12-18T08:39:50.364Z,7.38
2022-12-18T08:42:36.057Z,6.97
2022-12-18T08:45:03.842Z,46.45
2022-12-18T08:47:30.761Z,33.88
2022-12-18T08:49:57.594Z,9.68
2022-12-18T08:52:24.486Z,12.63
2022-12-18T08:54:51.494Z,8.85
2022-12-18T08:57:18.424Z,8.10
2022-12-18T08:59:45.244Z,8.48
2022-12-18T09:02:12.667Z,9.68
2022-12-18T09:04:41.052Z,40.55
2022-12-18T09:07:08.277Z,15.05
2022-12-18T09:09:35.205Z,6.65
2022-12-18T09:12:02.084Z,7.25
2022-12-18T09:14:28.882Z,13.32
2022-12-18T09:16:56.090Z,39.55
2022-12-18T09:19:22.947Z,41.85
2022-12-18T09:21:49.796Z,23.30
2022-12-18T09:24:17.186Z,14.80
2022-12-18T09:26:46.979Z,20.02
2022-12-18T09:29:15.658Z,16.23
2022-12-18T09:31:43.822Z,14.63
2022-12-18T09:34:10.778Z,13.82
2022-12-18T09:36:37.715Z,9.60
2022-12-18T09:39:08.575Z,10.15
2022-12-18T09:41:42.160Z,9.90
2022-12-18T09:44:25.109Z,8.40
2022-12-18T09:47:00.936Z,9.38
2022-12-18T09:49:31.715Z,13.40
2022-12-18T09:52:17.033Z,12.20
2022-12-18T09:54:49.227Z,9.35
2022-12-18T09:57:22.832Z,9.73
2022-12-18T10:00:00.316Z,12.05
2022-12-18T10:02:31.156Z,10.82
2022-12-18T10:05:18.113Z,8.70
2022-12-18T10:08:03.580Z,7.68
2022-12-18T10:10:41.284Z,8.30
2022-12-18T10:13:32.714Z,6.82
2022-12-18T10:16:20.730Z,8.27
2022-12-18T10:19:20.303Z,9.65
2022-12-18T10:22:04.408Z,12.18
2022-12-18T10:24:37.499Z,7.85
2022-12-18T10:27:26.717Z,10.43
2022-12-18T10:29:55.132Z,12.10
2022-12-18T10:32:27.775Z,9.18
2022-12-18T10:35:00.420Z,11.13
2022-12-18T10:37:30.988Z,9.80
2022-12-18T10:40:22.333Z,8.88
2022-12-18T10:43:13.299Z,8.27
2022-12-18T10:45:40.943Z,8.75
2022-12-18T10:48:23.624Z,24.65
2022-12-18T10:51:10.745Z,56.17
2022-12-18T10:53:43.002Z,49.58
2022-12-18T10:56:10.526Z,70.63
2022-12-18T10:58:39.698Z,12.88
2022-12-18T11:01:14.314Z,11.52
2022-12-18T11:04:03.314Z,11.02
2022-12-18T11:06:30.720Z,11.27
2022-12-18T11:09:12.260Z,11.48
2022-12-18T11:11:41.415Z,8.90
2022-12-18T11:14:23.059Z,9.60
2022-12-18T11:19:40.970Z,10.55
2022-12-18T11:22:29.257Z,9.13
2022-12-18T11:25:31.261Z,9.00
2022-12-18T11:28:03.869Z,8.90
2022-12-18T11:30:33.720Z,9.45
2022-12-18T11:33:10.627Z,9.93
2022-12-18T11:35:46.682Z,8.50
2022-12-18T11:38:24.399Z,7.80
2022-12-18T11:41:46.048Z,7.85
2022-12-18T11:44:20.578Z,7.82
2022-12-18T11:46:54.712Z,8.20
2022-12-18T11:49:28.014Z,10.98
2022-12-18T11:52:04.069Z,10.20
2022-12-18T11:54:31.061Z,6.55
2022-12-18T11:57:18.152Z,8.13
2022-12-18T12:00:02.496Z,10.82
2022-12-18T12:03:06.774Z,8.65
2022-12-18T12:06:02.700Z,8.27
2022-12-18T12:08:54.847Z,11.30
2022-12-18T12:11:44.819Z,12.57
2022-12-18T12:14:26.399Z,15.40
2022-12-18T12:17:08.134Z,16.45
2022-12-18T12:19:34.987Z,19.15
2022-12-18T12:22:19.387Z,23.80
2022-12-18T12:24:59.642Z,23.40
2022-12-18T12:27:41.052Z,24.02
2022-12-18T12:30:10.357Z,21.33
2022-12-18T12:33:07.090Z,18.88
2022-12-18T12:35:52.404Z,19.15
2022-12-18T12:38:32.177Z,13.50
2022-12-18T12:41:29.345Z,13.30
2022-12-18T12:44:01.092Z,13.20
2022-12-18T12:46:31.546Z,11.73
2022-12-18T12:49:03.243Z,14.60
2022-12-18T12:51:35.072Z,11.98
2022-12-18T12:54:04.851Z,12.93
2022-12-18T12:56:53.732Z,13.20
2022-12-18T12:59:24.854Z,13.50
2022-12-18T13:02:06.418Z,16.88
2022-12-18T13:04:39.557Z,28.92
2022-12-18T13:07:11.972Z,28.83
2022-12-18T13:13:44.928Z,28.42
2022-12-18T13:13:47.039Z,23.55
2022-12-18T13:16:06.903Z,13.57
2022-12-18T13:18:35.281Z,20.13
2022-12-18T13:21:05.261Z,14.90
2022-12-18T13:23:34.291Z,13.13
2022-12-18T13:26:28.182Z,14.55
2022-12-18T13:28:57.900Z,14.25
2022-12-18T13:31:31.050Z,15.90
2022-12-18T13:37:43.483Z,17.90
2022-12-18T13:40:42.330Z,14.77
2022-12-18T13:43:21.665Z,16.90
2022-12-18T13:46:02.291Z,18.15
2022-12-18T13:48:32.872Z,13.30
2022-12-18T13:51:08.954Z,19.10
2022-12-18T13:53:50.105Z,19.50
2022-12-18T13:56:18.281Z,35.30
2022-12-18T13:58:45.520Z,13.20
2022-12-18T14:01:25.358Z,12.77
2022-12-18T14:04:06.219Z,15.45
2022-12-18T14:06:33.100Z,15.88
2022-12-18T14:09:00.703Z,15.88
2022-12-18T14:11:27.874Z,20.30
2022-12-18T14:13:56.291Z,18.50
2022-12-18T14:16:23.487Z,16.70
2022-12-18T14:18:58.148Z,19.25
2022-12-18T14:21:36.216Z,46.13
2022-12-18T14:24:19.685Z,42.20
2022-12-18T14:26:48.391Z,38.88
2022-12-18T14:29:27.518Z,16.80
2022-12-18T14:32:17.550Z,19.00
2022-12-18T14:34:50.459Z,17.48
2022-12-18T14:40:11.240Z,16.95
2022-12-18T14:45:39.134Z,17.05
2022-12-18T14:48:36.129Z,17.42
2022-12-18T14:51:06.600Z,20.75
2022-12-18T14:53:36.694Z,28.67
2022-12-18T14:56:13.412Z,18.65
2022-12-18T14:58:40.627Z,20.15
2022-12-18T15:01:08.066Z,21.38
2022-12-18T15:03:44.878Z,19.55
2022-12-18T15:06:31.284Z,19.10
2022-12-18T15:08:59.883Z,19.67
2022-12-18T15:11:28.140Z,19.20
2022-12-18T15:13:54.964Z,19.13
2022-12-18T15:16:22.109Z,18.27
2022-12-18T15:18:49.490Z,19.50
2022-12-18T15:21:21.719Z,43.08
2022-12-18T15:23:52.041Z,31.70
2022-12-18T15:26:21.666Z,40.33
2022-12-18T15:28:51.260Z,21.20
2022-12-18T15:31:18.332Z,32.95
2022-12-18T15:34:20.284Z,19.10
2022-12-18T15:36:47.436Z,40.05
2022-12-18T15:39:14.533Z,41.33
2022-12-18T15:41:41.755Z,50.95
2022-12-18T15:44:24.392Z,30.70
2022-12-18T15:46:51.427Z,22.83
2022-12-18T15:49:18.236Z,24.08
2022-12-18T15:51:45.780Z,33.83
2022-12-18T15:54:17.198Z,24.00
2022-12-18T15:57:02.510Z,24.92
2022-12-18T15:59:29.612Z,38.55
2022-12-18T16:01:57.771Z,28.15
2022-12-18T16:04:25.761Z,22.67
2022-12-18T16:07:14.452Z,32.10
2022-12-18T16:09:43.051Z,32.25
2022-12-18T16:12:20.371Z,27.75
2022-12-18T16:14:47.709Z,33.25
2022-12-18T16:17:15.622Z,38.22
2022-12-18T16:19:43.639Z,33.05
2022-12-18T16:22:24.548Z,21.17
2022-12-18T16:24:53.115Z,31.73
2022-12-18T16:27:20.999Z,20.27
2022-12-18T16:29:48.036Z,28.75
2022-12-18T16:32:17.279Z,39.17
2022-12-18T16:34:44.773Z,28.77
2022-12-18T16:37:13.882Z,18.60
2022-12-18T16:39:41.453Z,43.92
2022-12-18T16:42:20.480Z,22.80
2022-12-18T16:44:49.119Z,22.55
2022-12-18T16:47:16.642Z,36.03
2022-12-18T16:49:46.105Z,36.03
2022-12-18T16:52:13.979Z,41.70
2022-12-18T16:54:40.820Z,35.35
2022-12-18T16:57:07.687Z,36.67
2022-12-18T16:59:34.598Z,43.70
2022-12-18T17:02:02.132Z,25.25
2022-12-18T17:04:29.094Z,20.48
2022-12-18T17:06:55.909Z,34.90
2022-12-18T17:09:26.126Z,26.05
2022-12-18T17:11:54.055Z,31.50
2022-12-18T17:14:23.863Z,36.83
2022-12-18T17:17:19.115Z,38.50
2022-12-18T17:19:38.979Z,24.90
2022-12-18T17:22:05.951Z,25.02
2022-12-18T17:24:35.105Z,25.33
2022-12-18T17:27:03.640Z,26.27
2022-12-18T17:29:30.992Z,24.02
2022-12-18T17:31:58.055Z,30.67
2022-12-18T17:34:27.460Z,29.85
2022-12-18T17:36:54.591Z,28.17
2022-12-18T17:39:23.032Z,32.97
2022-12-18T17:41:50.503Z,31.88
2022-12-18T17:44:18.475Z,26.00
2022-12-18T17:46:46.345Z,23.77
2022-12-18T17:49:15.908Z,24.73
2022-12-18T17:51:43.174Z,18.75
2022-12-18T17:54:11.110Z,18.23
2022-12-18T17:56:39.065Z,18.90
2022-12-18T17:59:07.307Z,21.80
2022-12-18T18:01:38.556Z,23.30
2022-12-18T18:04:09.510Z,19.38
2022-12-18T18:06:38.697Z,20.10
2022-12-18T18:09:12.256Z,23.70
2022-12-18T18:12:03.007Z,26.23
2022-12-18T18:14:30.378Z,33.95
2022-12-18T18:17:00.783Z,24.88
2022-12-18T18:19:33.165Z,21.13
2022-12-18T18:22:01.625Z,18.77
2022-12-18T18:24:30.300Z,23.13
2022-12-18T18:26:59.674Z,22.35
2022-12-18T18:29:28.625Z,21.05
2022-12-18T18:31:56.432Z,25.05
2022-12-18T18:34:26.766Z,20.63
2022-12-18T18:36:54.023Z,21.90
2022-12-18T18:39:21.233Z,28.25
2022-12-18T18:41:48.804Z,28.45
2022-12-18T18:44:19.082Z,21.98
2022-12-18T18:46:46.868Z,21.58
2022-12-18T18:49:15.013Z,20.30
2022-12-18T18:51:42.790Z,19.23
2022-12-18T18:54:10.328Z,20.65
2022-12-18T18:57:03.932Z,20.35
2022-12-18T18:59:31.349Z,23.70
2022-12-18T19:02:00.775Z,19.90
2022-12-18T19:04:35.258Z,16.98
2022-12-18T19:07:04.426Z,19.52
2022-12-18T19:09:31.510Z,18.75
2022-12-18T19:12:16.968Z,21.20
2022-12-18T19:14:44.289Z,21.35
2022-12-18T19:17:11.131Z,20.05
2022-12-18T19:19:38.424Z,21.58
2022-12-18T19:22:05.373Z,19.50
2022-12-18T19:24:32.253Z,20.30
2022-12-18T19:26:59.069Z,20.55
2022-12-18T19:29:25.991Z,21.90
2022-12-18T19:31:52.999Z,23.02
2022-12-18T19:34:20.066Z,22.88
2022-12-18T19:36:46.977Z,22.58
2022-12-18T19:39:17.694Z,20.85
2022-12-18T19:41:46.401Z,23.15
2022-12-18T19:44:15.784Z,24.50
2022-12-18T19:46:43.261Z,22.05
2022-12-18T19:49:11.614Z,23.80
2022-12-18T19:51:46.953Z,22.88
2022-12-18T19:54:16.957Z,21.70
2022-12-18T19:56:45.158Z,22.85
2022-12-18T19:59:12.131Z,21.60
2022-12-18T20:01:39.125Z,23.83
2022-12-18T20:04:06.341Z,19.98
2022-12-18T20:07:01.723Z,18.05
2022-12-18T20:09:28.695Z,20.63
2022-12-18T20:11:55.626Z,20.52
2022-12-18T20:14:23.874Z,23.15
2022-12-18T20:16:52.603Z,21.00
2022-12-18T20:19:20.927Z,21.10
2022-12-18T20:21:48.392Z,19.40
2022-12-18T20:24:15.396Z,20.40
2022-12-18T20:26:42.330Z,20.63
2022-12-18T20:29:09.238Z,20.60
2022-12-18T20:31:36.343Z,18.85
2022-12-18T20:34:04.885Z,17.45
2022-12-18T20:36:34.317Z,19.30
2022-12-18T20:39:05.379Z,19.83
2022-12-18T20:41:38.448Z,19.35
2022-12-18T20:46:56.503Z,20.85
2022-12-18T20:49:24.925Z,20.27
2022-12-18T20:51:54.084Z,18.45
2022-12-18T20:54:22.817Z,21.05
2022-12-18T20:56:50.285Z,20.83
2022-12-18T20:59:18.641Z,20.17
2022-12-18T21:01:48.285Z,18.42
2022-12-18T21:04:18.007Z,22.33
2022-12-18T21:06:49.405Z,23.35
2022-12-18T21:09:18.605Z,22.05
2022-12-18T21:12:03.867Z,23.42
2022-12-18T21:14:33.943Z,23.85
2022-12-18T21:17:02.128Z,20.98
2022-12-18T21:19:29.910Z,21.17
2022-12-18T21:21:57.801Z,22.23
2022-12-18T21:24:25.626Z,23.15
2022-12-18T21:26:54.137Z,26.40
2022-12-18T21:29:25.841Z,20.75
2022-12-18T21:31:54.733Z,18.73
2022-12-18T21:34:26.298Z,18.33
2022-12-18T21:36:55.148Z,19.67
2022-12-18T21:39:22.914Z,19.33
2022-12-18T21:42:09.286Z,18.80
2022-12-18T21:44:39.592Z,19.13
2022-12-18T21:47:22.163Z,20.23
2022-12-18T21:49:51.450Z,23.45
2022-12-18T21:52:18.784Z,20.08
2022-12-18T21:54:45.733Z,20.35
2022-12-18T21:57:15.814Z,18.40
2022-12-18T21:59:45.981Z,21.10
2022-12-18T22:02:12.989Z,16.88
2022-12-18T22:04:40.237Z,22.27
2022-12-18T22:07:07.557Z,22.70
2022-12-18T22:09:35.049Z,27.08
2022-12-18T22:12:02.110Z,29.58
2022-12-18T22:14:29.386Z,26.48
2022-12-18T22:16:57.491Z,26.58
2022-12-18T22:19:26.025Z,28.23
2022-12-18T22:21:53.816Z,25.13
2022-12-18T22:24:23.942Z,23.75
2022-12-18T22:26:53.108Z,52.83
2022-12-18T22:29:42.914Z,33.55
2022-12-18T22:32:13.131Z,29.27
2022-12-18T22:34:42.205Z,23.70
2022-12-18T22:37:11.594Z,19.25
2022-12-18T22:39:38.618Z,20.13
2022-12-18T22:42:05.876Z,23.30
2022-12-18T22:44:32.775Z,21.08
2022-12-18T22:47:07.006Z,19.98
2022-12-18T22:49:34.885Z,23.98
2022-12-18T22:52:03.020Z,20.45
2022-12-18T22:54:29.893Z,21.95
2022-12-18T22:56:57.152Z,21.20
2022-12-18T22:59:24.391Z,20.50
2022-12-18T23:01:58.393Z,20.73
2022-12-18T23:04:28.802Z,22.48
2022-12-18T23:07:07.537Z,21.55
2022-12-18T23:09:35.042Z,25.00
2022-12-18T23:12:02.033Z,21.02
2022-12-18T23:14:29.665Z,20.65
2022-12-18T23:16:56.804Z,19.15
2022-12-18T23:19:24.178Z,20.30
2022-12-18T23:21:51.833Z,22.58
2022-12-18T23:24:21.350Z,20.98
2022-12-18T23:26:48.159Z,22.13
2022-12-18T23:29:14.972Z,20.30
2022-12-18T23:31:41.863Z,20.98
2022-12-18T23:34:11.891Z,19.42
2022-12-18T23:36:46.264Z,18.13
2022-12-18T23:39:17.460Z,18.23
2022-12-18T23:41:59.720Z,19.52
2022-12-18T23:44:26.663Z,19.10
2022-12-18T23:46:54.690Z,19.92
2022-12-18T23:49:21.665Z,19.08
2022-12-18T23:51:48.700Z,17.88
2022-12-18T23:54:15.663Z,19.55
2022-12-18T23:56:42.502Z,15.25
2022-12-18T23:59:09.619Z,16.83
